sensor_id;sensor_type;location;lat;lon;timestamp;pressure;altitude;pressure_sealevel;temperature
60949;BMP280;46729;43.010;24.320;2022-08-19T00:01:53;96788.19;;;19.99
60949;BMP280;46729;43.010;24.320;2022-08-19T00:04:25;96790.13;;;20.08
60949;BMP280;46729;43.010;24.320;2022-08-19T00:06:52;96786.25;;;19.84
60949;BMP280;46729;43.010;24.320;2022-08-19T00:09:22;96783.03;;;19.83
60949;BMP280;46729;43.010;24.320;2022-08-19T00:11:50;96779.63;;;19.97
60949;BMP280;46729;43.010;24.320;2022-08-19T00:14:18;96783.00;;;20.18
60949;BMP280;46729;43.010;24.320;2022-08-19T00:16:48;96783.75;;;20.09
60949;BMP280;46729;43.010;24.320;2022-08-19T00:19:15;96772.19;;;20.39
60949;BMP280;46729;43.010;24.320;2022-08-19T00:21:43;96775.84;;;20.28
60949;BMP280;46729;43.010;24.320;2022-08-19T00:24:12;96777.00;;;20.37
60949;BMP280;46729;43.010;24.320;2022-08-19T00:26:39;96768.75;;;20.39
60949;BMP280;46729;43.010;24.320;2022-08-19T00:29:09;96765.84;;;20.50
60949;BMP280;46729;43.010;24.320;2022-08-19T00:31:36;96769.41;;;20.70
60949;BMP280;46729;43.010;24.320;2022-08-19T00:34:03;96771.00;;;20.71
60949;BMP280;46729;43.010;24.320;2022-08-19T00:36:30;96760.78;;;20.53
60949;BMP280;46729;43.010;24.320;2022-08-19T00:39:00;96771.22;;;20.60
60949;BMP280;46729;43.010;24.320;2022-08-19T00:41:27;96787.00;;;20.66
60949;BMP280;46729;43.010;24.320;2022-08-19T00:44:21;96775.19;;;20.57
60949;BMP280;46729;43.010;24.320;2022-08-19T00:46:51;96778.94;;;20.51
60949;BMP280;46729;43.010;24.320;2022-08-19T00:49:40;96790.13;;;20.48
60949;BMP280;46729;43.010;24.320;2022-08-19T00:52:30;96793.13;;;20.16
60949;BMP280;46729;43.010;24.320;2022-08-19T00:55:15;96796.09;;;20.24
60949;BMP280;46729;43.010;24.320;2022-08-19T00:57:47;96797.72;;;20.25
60949;BMP280;46729;43.010;24.320;2022-08-19T01:00:17;96802.78;;;19.86
60949;BMP280;46729;43.010;24.320;2022-08-19T01:02:45;96799.66;;;19.38
60949;BMP280;46729;43.010;24.320;2022-08-19T01:05:25;96807.66;;;19.38
60949;BMP280;46729;43.010;24.320;2022-08-19T01:07:56;96805.53;;;19.35
60949;BMP280;46729;43.010;24.320;2022-08-19T01:10:27;96796.50;;;19.41
60949;BMP280;46729;43.010;24.320;2022-08-19T01:12:57;96797.16;;;19.52
60949;BMP280;46729;43.010;24.320;2022-08-19T01:15:31;96803.72;;;19.71
60949;BMP280;46729;43.010;24.320;2022-08-19T01:18:02;96803.84;;;19.85
60949;BMP280;46729;43.010;24.320;2022-08-19T01:20:30;96805.56;;;20.01
60949;BMP280;46729;43.010;24.320;2022-08-19T01:22:59;96802.41;;;20.09
60949;BMP280;46729;43.010;24.320;2022-08-19T01:25:39;96809.69;;;19.52
60949;BMP280;46729;43.010;24.320;2022-08-19T01:28:07;96804.63;;;19.25
60949;BMP280;46729;43.010;24.320;2022-08-19T01:30:35;96809.41;;;19.27
60949;BMP280;46729;43.010;24.320;2022-08-19T01:33:02;96806.22;;;19.51
60949;BMP280;46729;43.010;24.320;2022-08-19T01:35:31;96807.66;;;19.64
60949;BMP280;46729;43.010;24.320;2022-08-19T01:38:04;96806.56;;;19.60
60949;BMP280;46729;43.010;24.320;2022-08-19T01:40:37;96807.81;;;19.78
60949;BMP280;46729;43.010;24.320;2022-08-19T01:43:05;96811.00;;;19.80
60949;BMP280;46729;43.010;24.320;2022-08-19T01:45:34;96809.28;;;19.65
60949;BMP280;46729;43.010;24.320;2022-08-19T01:48:02;96814.94;;;19.73
60949;BMP280;46729;43.010;24.320;2022-08-19T01:50:32;96813.66;;;19.24
60949;BMP280;46729;43.010;24.320;2022-08-19T01:53:01;96806.06;;;19.11
60949;BMP280;46729;43.010;24.320;2022-08-19T01:55:28;96811.69;;;18.88
60949;BMP280;46729;43.010;24.320;2022-08-19T01:58:00;96809.63;;;18.95
60949;BMP280;46729;43.010;24.320;2022-08-19T02:00:31;96808.78;;;19.42
60949;BMP280;46729;43.010;24.320;2022-08-19T02:02:58;96800.47;;;19.38
60949;BMP280;46729;43.010;24.320;2022-08-19T02:05:27;96799.75;;;19.47
60949;BMP280;46729;43.010;24.320;2022-08-19T02:07:56;96801.00;;;19.61
60949;BMP280;46729;43.010;24.320;2022-08-19T02:10:23;96802.09;;;19.39
60949;BMP280;46729;43.010;24.320;2022-08-19T02:12:51;96800.22;;;19.40
60949;BMP280;46729;43.010;24.320;2022-08-19T02:15:19;96807.09;;;19.36
60949;BMP280;46729;43.010;24.320;2022-08-19T02:17:46;96801.16;;;19.55
60949;BMP280;46729;43.010;24.320;2022-08-19T02:20:14;96809.03;;;18.88
60949;BMP280;46729;43.010;24.320;2022-08-19T02:22:42;96813.66;;;18.56
60949;BMP280;46729;43.010;24.320;2022-08-19T02:25:11;96824.97;;;18.47
60949;BMP280;46729;43.010;24.320;2022-08-19T02:27:39;96817.03;;;18.51
60949;BMP280;46729;43.010;24.320;2022-08-19T02:30:09;96814.06;;;18.69
60949;BMP280;46729;43.010;24.320;2022-08-19T02:32:37;96818.19;;;18.76
60949;BMP280;46729;43.010;24.320;2022-08-19T02:35:04;96812.88;;;19.02
60949;BMP280;46729;43.010;24.320;2022-08-19T02:37:31;96820.38;;;19.05
60949;BMP280;46729;43.010;24.320;2022-08-19T02:40:24;96821.56;;;18.93
60949;BMP280;46729;43.010;24.320;2022-08-19T02:42:51;96819.66;;;18.88
60949;BMP280;46729;43.010;24.320;2022-08-19T02:45:18;96821.25;;;18.68
60949;BMP280;46729;43.010;24.320;2022-08-19T02:47:44;96820.31;;;18.74
60949;BMP280;46729;43.010;24.320;2022-08-19T02:50:13;96825.28;;;18.71
60949;BMP280;46729;43.010;24.320;2022-08-19T02:52:40;96829.19;;;18.64
60949;BMP280;46729;43.010;24.320;2022-08-19T02:55:07;96821.78;;;18.87
60949;BMP280;46729;43.010;24.320;2022-08-19T02:57:35;96828.81;;;18.97
60949;BMP280;46729;43.010;24.320;2022-08-19T03:00:05;96823.91;;;19.10
60949;BMP280;46729;43.010;24.320;2022-08-19T03:02:32;96823.81;;;19.27
60949;BMP280;46729;43.010;24.320;2022-08-19T03:04:59;96822.50;;;19.29
60949;BMP280;46729;43.010;24.320;2022-08-19T03:07:26;96828.63;;;19.29
60949;BMP280;46729;43.010;24.320;2022-08-19T03:09:52;96824.69;;;19.37
60949;BMP280;46729;43.010;24.320;2022-08-19T03:12:19;96829.53;;;19.14
60949;BMP280;46729;43.010;24.320;2022-08-19T03:14:46;96839.06;;;19.10
60949;BMP280;46729;43.010;24.320;2022-08-19T03:17:12;96846.78;;;18.86
60949;BMP280;46729;43.010;24.320;2022-08-19T03:19:39;96844.97;;;19.12
60949;BMP280;46729;43.010;24.320;2022-08-19T03:22:06;96851.63;;;19.09
60949;BMP280;46729;43.010;24.320;2022-08-19T03:24:35;96856.00;;;18.78
60949;BMP280;46729;43.010;24.320;2022-08-19T03:27:01;96855.81;;;18.27
60949;BMP280;46729;43.010;24.320;2022-08-19T03:29:31;96849.06;;;18.19
60949;BMP280;46729;43.010;24.320;2022-08-19T03:32:00;96848.34;;;18.45
60949;BMP280;46729;43.010;24.320;2022-08-19T03:34:30;96855.09;;;18.52
60949;BMP280;46729;43.010;24.320;2022-08-19T03:37:03;96852.78;;;18.76
60949;BMP280;46729;43.010;24.320;2022-08-19T03:39:31;96857.66;;;19.05
60949;BMP280;46729;43.010;24.320;2022-08-19T03:41:58;96863.44;;;18.97
60949;BMP280;46729;43.010;24.320;2022-08-19T03:44:30;96865.69;;;18.47
60949;BMP280;46729;43.010;24.320;2022-08-19T03:46:59;96873.59;;;18.42
60949;BMP280;46729;43.010;24.320;2022-08-19T03:49:29;96874.47;;;18.48
60949;BMP280;46729;43.010;24.320;2022-08-19T03:51:57;96870.41;;;18.61
60949;BMP280;46729;43.010;24.320;2022-08-19T03:54:27;96872.06;;;18.67
60949;BMP280;46729;43.010;24.320;2022-08-19T03:56:56;96875.06;;;18.70
60949;BMP280;46729;43.010;24.320;2022-08-19T03:59:29;96876.03;;;18.65
60949;BMP280;46729;43.010;24.320;2022-08-19T04:01:59;96876.16;;;18.53
60949;BMP280;46729;43.010;24.320;2022-08-19T04:04:26;96883.03;;;18.70
60949;BMP280;46729;43.010;24.320;2022-08-19T04:06:53;96886.34;;;18.77
60949;BMP280;46729;43.010;24.320;2022-08-19T04:09:20;96890.91;;;19.03
60949;BMP280;46729;43.010;24.320;2022-08-19T04:11:50;96880.31;;;19.28
60949;BMP280;46729;43.010;24.320;2022-08-19T04:14:24;96887.34;;;19.39
60949;BMP280;46729;43.010;24.320;2022-08-19T04:16:52;96876.44;;;19.41
60949;BMP280;46729;43.010;24.320;2022-08-19T04:19:19;96884.38;;;19.36
60949;BMP280;46729;43.010;24.320;2022-08-19T04:21:48;96879.44;;;19.44
60949;BMP280;46729;43.010;24.320;2022-08-19T04:24:17;96875.91;;;19.65
60949;BMP280;46729;43.010;24.320;2022-08-19T04:26:45;96883.34;;;19.63
60949;BMP280;46729;43.010;24.320;2022-08-19T04:29:22;96881.13;;;19.81
60949;BMP280;46729;43.010;24.320;2022-08-19T04:31:52;96881.84;;;20.02
60949;BMP280;46729;43.010;24.320;2022-08-19T04:34:22;96880.88;;;20.13
60949;BMP280;46729;43.010;24.320;2022-08-19T04:36:50;96874.25;;;20.20
60949;BMP280;46729;43.010;24.320;2022-08-19T04:39:21;96868.63;;;20.22
60949;BMP280;46729;43.010;24.320;2022-08-19T04:41:48;96870.56;;;20.26
60949;BMP280;46729;43.010;24.320;2022-08-19T04:44:35;96874.59;;;20.28
60949;BMP280;46729;43.010;24.320;2022-08-19T04:47:02;96872.53;;;20.40
60949;BMP280;46729;43.010;24.320;2022-08-19T04:49:32;96876.28;;;20.39
60949;BMP280;46729;43.010;24.320;2022-08-19T04:51:59;96871.47;;;20.41
60949;BMP280;46729;43.010;24.320;2022-08-19T04:54:26;96870.19;;;20.48
60949;BMP280;46729;43.010;24.320;2022-08-19T04:56:53;96876.16;;;20.65
60949;BMP280;46729;43.010;24.320;2022-08-19T04:59:21;96868.50;;;20.78
60949;BMP280;46729;43.010;24.320;2022-08-19T05:01:48;96872.56;;;20.95
60949;BMP280;46729;43.010;24.320;2022-08-19T05:04:19;96868.97;;;21.16
60949;BMP280;46729;43.010;24.320;2022-08-19T05:06:50;96874.31;;;21.25
60949;BMP280;46729;43.010;24.320;2022-08-19T05:09:18;96879.44;;;21.32
60949;BMP280;46729;43.010;24.320;2022-08-19T05:11:47;96875.19;;;21.45
60949;BMP280;46729;43.010;24.320;2022-08-19T05:14:14;96867.97;;;21.60
60949;BMP280;46729;43.010;24.320;2022-08-19T05:16:41;96869.88;;;21.70
60949;BMP280;46729;43.010;24.320;2022-08-19T05:19:08;96868.03;;;21.75
60949;BMP280;46729;43.010;24.320;2022-08-19T05:21:53;96862.91;;;21.64
60949;BMP280;46729;43.010;24.320;2022-08-19T05:24:39;96858.69;;;21.92
60949;BMP280;46729;43.010;24.320;2022-08-19T05:27:05;96862.44;;;22.15
60949;BMP280;46729;43.010;24.320;2022-08-19T05:29:33;96860.00;;;22.24
60949;BMP280;46729;43.010;24.320;2022-08-19T05:32:03;96855.16;;;22.40
60949;BMP280;46729;43.010;24.320;2022-08-19T05:34:31;96863.97;;;22.55
60949;BMP280;46729;43.010;24.320;2022-08-19T05:37:01;96861.81;;;22.72
60949;BMP280;46729;43.010;24.320;2022-08-19T05:39:30;96867.16;;;22.87
60949;BMP280;46729;43.010;24.320;2022-08-19T05:42:02;96852.63;;;22.97
60949;BMP280;46729;43.010;24.320;2022-08-19T05:44:34;96854.44;;;23.11
60949;BMP280;46729;43.010;24.320;2022-08-19T05:47:06;96850.38;;;23.19
60949;BMP280;46729;43.010;24.320;2022-08-19T05:49:35;96853.56;;;23.26
60949;BMP280;46729;43.010;24.320;2022-08-19T05:52:10;96865.88;;;23.31
60949;BMP280;46729;43.010;24.320;2022-08-19T05:54:39;96860.50;;;23.36
60949;BMP280;46729;43.010;24.320;2022-08-19T05:57:09;96863.38;;;23.49
60949;BMP280;46729;43.010;24.320;2022-08-19T05:59:39;96857.69;;;23.61
60949;BMP280;46729;43.010;24.320;2022-08-19T06:02:06;96860.78;;;23.77
60949;BMP280;46729;43.010;24.320;2022-08-19T06:04:33;96859.09;;;23.86
60949;BMP280;46729;43.010;24.320;2022-08-19T06:07:00;96859.53;;;24.03
60949;BMP280;46729;43.010;24.320;2022-08-19T06:09:28;96866.38;;;24.18
60949;BMP280;46729;43.010;24.320;2022-08-19T06:11:57;96858.50;;;24.31
60949;BMP280;46729;43.010;24.320;2022-08-19T06:14:29;96862.97;;;24.41
60949;BMP280;46729;43.010;24.320;2022-08-19T06:16:56;96864.50;;;24.51
60949;BMP280;46729;43.010;24.320;2022-08-19T06:19:24;96866.00;;;24.62
60949;BMP280;46729;43.010;24.320;2022-08-19T06:21:55;96863.97;;;24.77
60949;BMP280;46729;43.010;24.320;2022-08-19T06:24:24;96850.13;;;24.88
60949;BMP280;46729;43.010;24.320;2022-08-19T06:26:54;96852.34;;;25.04
60949;BMP280;46729;43.010;24.320;2022-08-19T06:29:22;96848.44;;;25.15
60949;BMP280;46729;43.010;24.320;2022-08-19T06:31:52;96847.47;;;25.29
60949;BMP280;46729;43.010;24.320;2022-08-19T06:34:20;96844.66;;;25.39
60949;BMP280;46729;43.010;24.320;2022-08-19T06:36:52;96847.22;;;25.49
60949;BMP280;46729;43.010;24.320;2022-08-19T06:39:23;96853.50;;;25.62
60949;BMP280;46729;43.010;24.320;2022-08-19T06:41:56;96841.47;;;25.73
60949;BMP280;46729;43.010;24.320;2022-08-19T06:44:24;96846.69;;;25.88
60949;BMP280;46729;43.010;24.320;2022-08-19T06:46:54;96841.50;;;25.91
60949;BMP280;46729;43.010;24.320;2022-08-19T06:49:23;96843.66;;;26.07
60949;BMP280;46729;43.010;24.320;2022-08-19T06:51:50;96848.38;;;26.15
60949;BMP280;46729;43.010;24.320;2022-08-19T06:54:18;96844.91;;;26.28
60949;BMP280;46729;43.010;24.320;2022-08-19T06:56:45;96848.44;;;26.41
60949;BMP280;46729;43.010;24.320;2022-08-19T06:59:16;96849.91;;;26.52
60949;BMP280;46729;43.010;24.320;2022-08-19T07:01:49;96854.94;;;26.72
60949;BMP280;46729;43.010;24.320;2022-08-19T07:04:20;96841.78;;;26.83
60949;BMP280;46729;43.010;24.320;2022-08-19T07:06:48;96838.09;;;26.93
60949;BMP280;46729;43.010;24.320;2022-08-19T07:09:17;96849.16;;;27.04
60949;BMP280;46729;43.010;24.320;2022-08-19T07:12:04;96834.41;;;27.15
60949;BMP280;46729;43.010;24.320;2022-08-19T07:14:30;96840.78;;;27.19
60949;BMP280;46729;43.010;24.320;2022-08-19T07:16:56;96840.88;;;27.27
60949;BMP280;46729;43.010;24.320;2022-08-19T07:19:25;96838.59;;;27.34
60949;BMP280;46729;43.010;24.320;2022-08-19T07:21:55;96838.84;;;27.46
60949;BMP280;46729;43.010;24.320;2022-08-19T07:24:23;96831.63;;;27.54
60949;BMP280;46729;43.010;24.320;2022-08-19T07:26:52;96835.94;;;27.69
60949;BMP280;46729;43.010;24.320;2022-08-19T07:29:23;96840.63;;;27.76
60949;BMP280;46729;43.010;24.320;2022-08-19T07:31:50;96834.19;;;27.86
60949;BMP280;46729;43.010;24.320;2022-08-19T07:34:17;96834.28;;;27.94
60949;BMP280;46729;43.010;24.320;2022-08-19T07:36:45;96832.22;;;27.99
60949;BMP280;46729;43.010;24.320;2022-08-19T07:39:15;96836.78;;;28.12
60949;BMP280;46729;43.010;24.320;2022-08-19T07:42:06;96834.34;;;28.24
60949;BMP280;46729;43.010;24.320;2022-08-19T07:44:33;96831.41;;;28.33
60949;BMP280;46729;43.010;24.320;2022-08-19T07:47:00;96832.09;;;28.39
60949;BMP280;46729;43.010;24.320;2022-08-19T07:49:26;96840.19;;;28.39
60949;BMP280;46729;43.010;24.320;2022-08-19T07:51:56;96825.00;;;28.51
60949;BMP280;46729;43.010;24.320;2022-08-19T07:54:24;96839.34;;;28.60
60949;BMP280;46729;43.010;24.320;2022-08-19T07:56:52;96827.44;;;28.61
60949;BMP280;46729;43.010;24.320;2022-08-19T07:59:21;96839.09;;;28.69
60949;BMP280;46729;43.010;24.320;2022-08-19T08:01:51;96842.63;;;28.78
60949;BMP280;46729;43.010;24.320;2022-08-19T08:04:20;96829.38;;;28.90
60949;BMP280;46729;43.010;24.320;2022-08-19T08:07:07;96832.56;;;29.00
60949;BMP280;46729;43.010;24.320;2022-08-19T08:09:52;96828.78;;;29.09
60949;BMP280;46729;43.010;24.320;2022-08-19T08:12:24;96823.13;;;29.27
60949;BMP280;46729;43.010;24.320;2022-08-19T08:14:56;96822.97;;;29.32
60949;BMP280;46729;43.010;24.320;2022-08-19T08:17:25;96823.66;;;29.46
60949;BMP280;46729;43.010;24.320;2022-08-19T08:19:51;96816.16;;;29.43
60949;BMP280;46729;43.010;24.320;2022-08-19T08:22:19;96811.25;;;29.62
60949;BMP280;46729;43.010;24.320;2022-08-19T08:25:11;96808.13;;;29.76
60949;BMP280;46729;43.010;24.320;2022-08-19T08:27:42;96817.22;;;29.88
60949;BMP280;46729;43.010;24.320;2022-08-19T08:30:13;96813.38;;;29.89
60949;BMP280;46729;43.010;24.320;2022-08-19T08:32:40;96812.75;;;30.01
60949;BMP280;46729;43.010;24.320;2022-08-19T08:35:08;96812.91;;;30.04
60949;BMP280;46729;43.010;24.320;2022-08-19T08:37:34;96815.59;;;30.12
60949;BMP280;46729;43.010;24.320;2022-08-19T08:40:04;96815.59;;;30.21
60949;BMP280;46729;43.010;24.320;2022-08-19T08:42:36;96811.63;;;30.26
60949;BMP280;46729;43.010;24.320;2022-08-19T08:45:12;96811.94;;;30.25
60949;BMP280;46729;43.010;24.320;2022-08-19T08:47:41;96804.59;;;30.50
60949;BMP280;46729;43.010;24.320;2022-08-19T08:50:14;96807.59;;;30.57
60949;BMP280;46729;43.010;24.320;2022-08-19T08:52:47;96800.19;;;30.74
60949;BMP280;46729;43.010;24.320;2022-08-19T08:55:20;96799.34;;;30.82
60949;BMP280;46729;43.010;24.320;2022-08-19T08:57:55;96800.00;;;30.87
60949;BMP280;46729;43.010;24.320;2022-08-19T09:00:45;96792.50;;;30.93
60949;BMP280;46729;43.010;24.320;2022-08-19T09:03:26;96791.59;;;31.09
60949;BMP280;46729;43.010;24.320;2022-08-19T09:08:29;96786.03;;;31.34
60949;BMP280;46729;43.010;24.320;2022-08-19T09:10:58;96785.50;;;31.48
60949;BMP280;46729;43.010;24.320;2022-08-19T09:13:42;96776.38;;;31.73
60949;BMP280;46729;43.010;24.320;2022-08-19T09:16:15;96783.53;;;31.77
60949;BMP280;46729;43.010;24.320;2022-08-19T09:21:08;96784.41;;;31.89
60949;BMP280;46729;43.010;24.320;2022-08-19T09:23:37;96780.91;;;32.09
60949;BMP280;46729;43.010;24.320;2022-08-19T09:26:08;96778.53;;;32.19
60949;BMP280;46729;43.010;24.320;2022-08-19T09:28:34;96771.78;;;32.25
60949;BMP280;46729;43.010;24.320;2022-08-19T09:30:59;96761.94;;;32.32
60949;BMP280;46729;43.010;24.320;2022-08-19T09:33:26;96765.69;;;32.39
60949;BMP280;46729;43.010;24.320;2022-08-19T09:36:10;96774.03;;;32.54
60949;BMP280;46729;43.010;24.320;2022-08-19T09:38:38;96761.00;;;32.48
60949;BMP280;46729;43.010;24.320;2022-08-19T09:41:11;96762.59;;;32.61
60949;BMP280;46729;43.010;24.320;2022-08-19T09:43:40;96765.13;;;32.66
60949;BMP280;46729;43.010;24.320;2022-08-19T09:46:09;96754.75;;;32.48
60949;BMP280;46729;43.010;24.320;2022-08-19T09:48:42;96761.84;;;32.60
60949;BMP280;46729;43.010;24.320;2022-08-19T09:51:12;96758.41;;;32.52
60949;BMP280;46729;43.010;24.320;2022-08-19T09:53:44;96755.88;;;32.47
60949;BMP280;46729;43.010;24.320;2022-08-19T09:56:12;96760.13;;;32.79
60949;BMP280;46729;43.010;24.320;2022-08-19T09:58:39;96743.69;;;32.88
60949;BMP280;46729;43.010;24.320;2022-08-19T10:01:07;96742.09;;;32.87
60949;BMP280;46729;43.010;24.320;2022-08-19T10:03:35;96741.38;;;33.10
60949;BMP280;46729;43.010;24.320;2022-08-19T10:06:05;96744.31;;;33.16
60949;BMP280;46729;43.010;24.320;2022-08-19T10:08:35;96729.44;;;32.91
60949;BMP280;46729;43.010;24.320;2022-08-19T10:11:03;96730.34;;;33.18
60949;BMP280;46729;43.010;24.320;2022-08-19T10:13:31;96728.31;;;33.27
60949;BMP280;46729;43.010;24.320;2022-08-19T10:16:13;96728.28;;;33.50
60949;BMP280;46729;43.010;24.320;2022-08-19T10:18:41;96725.34;;;33.55
60949;BMP280;46729;43.010;24.320;2022-08-19T10:21:13;96718.38;;;33.57
60949;BMP280;46729;43.010;24.320;2022-08-19T10:23:41;96717.78;;;33.75
60949;BMP280;46729;43.010;24.320;2022-08-19T10:26:15;96718.81;;;33.71
60949;BMP280;46729;43.010;24.320;2022-08-19T10:28:42;96720.78;;;33.47
60949;BMP280;46729;43.010;24.320;2022-08-19T10:31:14;96724.41;;;33.39
60949;BMP280;46729;43.010;24.320;2022-08-19T10:33:41;96716.91;;;33.71
60949;BMP280;46729;43.010;24.320;2022-08-19T10:36:13;96718.25;;;34.04
60949;BMP280;46729;43.010;24.320;2022-08-19T10:38:46;96702.28;;;34.18
60949;BMP280;46729;43.010;24.320;2022-08-19T10:41:18;96707.91;;;34.36
60949;BMP280;46729;43.010;24.320;2022-08-19T10:43:45;96709.84;;;34.51
60949;BMP280;46729;43.010;24.320;2022-08-19T10:46:14;96705.44;;;34.62
60949;BMP280;46729;43.010;24.320;2022-08-19T10:48:42;96707.03;;;34.63
60949;BMP280;46729;43.010;24.320;2022-08-19T10:51:10;96701.84;;;34.58
60949;BMP280;46729;43.010;24.320;2022-08-19T10:53:57;96703.41;;;34.59
60949;BMP280;46729;43.010;24.320;2022-08-19T10:56:24;96709.25;;;34.72
60949;BMP280;46729;43.010;24.320;2022-08-19T10:59:10;96702.94;;;34.84
60949;BMP280;46729;43.010;24.320;2022-08-19T11:01:41;96713.22;;;34.75
60949;BMP280;46729;43.010;24.320;2022-08-19T11:04:08;96714.25;;;34.70
60949;BMP280;46729;43.010;24.320;2022-08-19T11:06:41;96708.44;;;34.72
60949;BMP280;46729;43.010;24.320;2022-08-19T11:09:10;96705.44;;;34.47
60949;BMP280;46729;43.010;24.320;2022-08-19T11:11:37;96698.63;;;34.83
60949;BMP280;46729;43.010;24.320;2022-08-19T11:14:12;96695.00;;;35.09
60949;BMP280;46729;43.010;24.320;2022-08-19T11:16:40;96694.00;;;35.32
60949;BMP280;46729;43.010;24.320;2022-08-19T11:19:08;96700.06;;;35.10
60949;BMP280;46729;43.010;24.320;2022-08-19T11:21:38;96695.63;;;35.51
60949;BMP280;46729;43.010;24.320;2022-08-19T11:24:12;96693.50;;;35.45
60949;BMP280;46729;43.010;24.320;2022-08-19T11:26:40;96695.06;;;35.61
60949;BMP280;46729;43.010;24.320;2022-08-19T11:29:08;96685.22;;;35.75
60949;BMP280;46729;43.010;24.320;2022-08-19T11:31:42;96683.19;;;35.05
60949;BMP280;46729;43.010;24.320;2022-08-19T11:34:12;96690.56;;;35.35
60949;BMP280;46729;43.010;24.320;2022-08-19T11:36:41;96690.00;;;35.63
60949;BMP280;46729;43.010;24.320;2022-08-19T11:39:09;96683.25;;;35.57
60949;BMP280;46729;43.010;24.320;2022-08-19T11:41:36;96687.66;;;35.80
60949;BMP280;46729;43.010;24.320;2022-08-19T11:44:04;96682.41;;;34.89
60949;BMP280;46729;43.010;24.320;2022-08-19T11:46:31;96670.00;;;35.41
60949;BMP280;46729;43.010;24.320;2022-08-19T11:48:59;96674.47;;;35.48
60949;BMP280;46729;43.010;24.320;2022-08-19T11:51:28;96666.19;;;35.63
60949;BMP280;46729;43.010;24.320;2022-08-19T11:53:56;96664.84;;;35.73
60949;BMP280;46729;43.010;24.320;2022-08-19T11:56:25;96654.41;;;35.60
60949;BMP280;46729;43.010;24.320;2022-08-19T11:58:52;96657.16;;;35.60
60949;BMP280;46729;43.010;24.320;2022-08-19T12:01:22;96653.56;;;35.74
60949;BMP280;46729;43.010;24.320;2022-08-19T12:03:51;96658.53;;;35.87
60949;BMP280;46729;43.010;24.320;2022-08-19T12:06:30;96657.31;;;35.85
60949;BMP280;46729;43.010;24.320;2022-08-19T12:08:59;96652.06;;;35.95
60949;BMP280;46729;43.010;24.320;2022-08-19T12:11:27;96649.75;;;36.16
60949;BMP280;46729;43.010;24.320;2022-08-19T12:13:54;96656.13;;;35.67
60949;BMP280;46729;43.010;24.320;2022-08-19T12:16:24;96633.25;;;36.12
60949;BMP280;46729;43.010;24.320;2022-08-19T12:18:51;96639.88;;;36.30
60949;BMP280;46729;43.010;24.320;2022-08-19T12:21:20;96637.97;;;36.34
60949;BMP280;46729;43.010;24.320;2022-08-19T12:23:49;96625.94;;;36.60
60949;BMP280;46729;43.010;24.320;2022-08-19T12:26:17;96623.03;;;36.72
60949;BMP280;46729;43.010;24.320;2022-08-19T12:28:44;96625.94;;;36.60
60949;BMP280;46729;43.010;24.320;2022-08-19T12:31:11;96636.13;;;35.63
60949;BMP280;46729;43.010;24.320;2022-08-19T12:33:39;96630.84;;;35.18
60949;BMP280;46729;43.010;24.320;2022-08-19T12:36:09;96625.13;;;35.97
60949;BMP280;46729;43.010;24.320;2022-08-19T12:38:37;96621.06;;;36.10
60949;BMP280;46729;43.010;24.320;2022-08-19T12:41:06;96617.09;;;36.26
60949;BMP280;46729;43.010;24.320;2022-08-19T12:43:34;96610.78;;;36.44
60949;BMP280;46729;43.010;24.320;2022-08-19T12:46:05;96610.06;;;36.69
60949;BMP280;46729;43.010;24.320;2022-08-19T12:48:33;96610.75;;;36.62
60949;BMP280;46729;43.010;24.320;2022-08-19T12:51:05;96608.38;;;36.61
60949;BMP280;46729;43.010;24.320;2022-08-19T12:53:32;96609.44;;;36.57
60949;BMP280;46729;43.010;24.320;2022-08-19T12:55:59;96609.13;;;36.39
60949;BMP280;46729;43.010;24.320;2022-08-19T12:58:27;96602.47;;;36.59
60949;BMP280;46729;43.010;24.320;2022-08-19T13:00:55;96607.25;;;36.65
60949;BMP280;46729;43.010;24.320;2022-08-19T13:03:22;96605.84;;;36.53
60949;BMP280;46729;43.010;24.320;2022-08-19T13:05:54;96612.84;;;36.50
60949;BMP280;46729;43.010;24.320;2022-08-19T13:08:21;96602.41;;;36.56
60949;BMP280;46729;43.010;24.320;2022-08-19T13:10:48;96598.91;;;36.80
60949;BMP280;46729;43.010;24.320;2022-08-19T13:13:15;96600.44;;;36.78
60949;BMP280;46729;43.010;24.320;2022-08-19T13:15:42;96602.47;;;36.84
60949;BMP280;46729;43.010;24.320;2022-08-19T13:18:11;96603.69;;;36.87
60949;BMP280;46729;43.010;24.320;2022-08-19T13:20:39;96599.81;;;36.88
60949;BMP280;46729;43.010;24.320;2022-08-19T13:23:09;96603.78;;;36.90
60949;BMP280;46729;43.010;24.320;2022-08-19T13:25:36;96598.41;;;37.00
60949;BMP280;46729;43.010;24.320;2022-08-19T13:28:03;96606.50;;;36.02
60949;BMP280;46729;43.010;24.320;2022-08-19T13:30:33;96598.84;;;36.11
60949;BMP280;46729;43.010;24.320;2022-08-19T13:33:19;96606.72;;;35.57
60949;BMP280;46729;43.010;24.320;2022-08-19T13:35:51;96598.84;;;36.11
60949;BMP280;46729;43.010;24.320;2022-08-19T13:38:23;96605.47;;;35.36
60949;BMP280;46729;43.010;24.320;2022-08-19T13:40:52;96602.53;;;35.44
60949;BMP280;46729;43.010;24.320;2022-08-19T13:43:20;96603.69;;;34.91
60949;BMP280;46729;43.010;24.320;2022-08-19T13:45:52;96596.66;;;35.09
60949;BMP280;46729;43.010;24.320;2022-08-19T13:48:23;96590.25;;;35.54
60949;BMP280;46729;43.010;24.320;2022-08-19T13:50:51;96591.41;;;35.71
60949;BMP280;46729;43.010;24.320;2022-08-19T13:53:18;96592.13;;;35.87
60949;BMP280;46729;43.010;24.320;2022-08-19T13:55:45;96596.09;;;35.71
60949;BMP280;46729;43.010;24.320;2022-08-19T13:58:12;96599.22;;;35.91
60949;BMP280;46729;43.010;24.320;2022-08-19T14:00:42;96591.75;;;35.88
60949;BMP280;46729;43.010;24.320;2022-08-19T14:03:10;96591.56;;;35.78
60949;BMP280;46729;43.010;24.320;2022-08-19T14:05:37;96592.41;;;35.82
60949;BMP280;46729;43.010;24.320;2022-08-19T14:08:05;96585.59;;;35.73
60949;BMP280;46729;43.010;24.320;2022-08-19T14:10:31;96601.03;;;35.65
60949;BMP280;46729;43.010;24.320;2022-08-19T14:13:00;96593.75;;;35.54
60949;BMP280;46729;43.010;24.320;2022-08-19T14:15:31;96589.84;;;35.52
60949;BMP280;46729;43.010;24.320;2022-08-19T14:17:58;96593.00;;;35.35